This is the latest recevied weather packets stored in our database for station/object VK2HIM-1. If no packets are shown the sender has not sent any weather packets the latest 1 day(s).
| Time | Temp. | Humidity | Pressure | Rain* | Wind** | Luminosity | Snow |
|---|---|---|---|---|---|---|---|
| 1778051028 | 18.89° C | 78% | 1015.5 hPa | 0 mm | 2.68 m/s, 36° | - | - |
| 1778049228 | 20° C | 75% | 1015.5 hPa | 0 mm | 3.58 m/s, 60° | - | - |
| 1778047428 | 20.56° C | 72% | 1015.8 hPa | 0 mm | 3.13 m/s, 62° | - | - |
| 1778045628 | 21.11° C | 71% | 1016 hPa | 0 mm | 3.58 m/s, 51° | - | - |
| 1778043828 | 21.67° C | 68% | 1016.3 hPa | 0 mm | 2.68 m/s, 59° | - | - |
| 1778042027 | 22.22° C | 66% | 1016.7 hPa | 0 mm | 2.68 m/s, 65° | - | - |
| 1778040226 | 22.78° C | 65% | 1017 hPa | 0 mm | 1.34 m/s, 68° | - | - |
| 1778038426 | 23.33° C | 63% | 1017.4 hPa | 0 mm | 0.89 m/s, 98° | - | - |
| 1778036626 | 22.22° C | 66% | 1017.9 hPa | 0 mm | 1.34 m/s, 90° | - | - |
| 1778034826 | 21.67° C | 68% | 1018.4 hPa | 0 mm | 0 m/s | - | - |
| 1778033026 | 21.11° C | 66% | 1019.1 hPa | 0 mm | 0 m/s | - | - |
| 1778031229 | 20.56° C | 69% | 1019.7 hPa | 0 mm | 0 m/s | - | - |
| 1778029429 | 19.44° C | 74% | 1020.3 hPa | 0 mm | 0 m/s | - | - |
| 1778027629 | 18.89° C | 75% | 1020.6 hPa | 0 mm | 0 m/s | - | - |
| 1778025829 | 17.78° C | 77% | 1020.7 hPa | 0 mm | 0 m/s | - | - |
| 1778024029 | 17.22° C | 78% | 1020.7 hPa | 0 mm | 0 m/s | - | - |
| 1778022229 | 16.11° C | 80% | 1020.9 hPa | 0 mm | 0 m/s | - | - |
| 1778020429 | 14.44° C | 82% | 1021 hPa | 0 mm | 0 m/s | - | - |
| 1778018629 | 12.22° C | 87% | 1020.8 hPa | 0 mm | 0 m/s | - | - |
| 1778016827 | 11.67° C | 85% | 1020.6 hPa | 0 mm | 0 m/s | - | - |
| 1778015026 | 11.11° C | 85% | 1020.4 hPa | 0 mm | 0 m/s | - | - |
| 1778013226 | 11.11° C | 85% | 1020.3 hPa | 0 mm | 0 m/s | - | - |
| 1778011426 | 11.11° C | 86% | 1020.2 hPa | 0 mm | 0 m/s | - | - |
| 1778009626 | 11.67° C | 83% | 1020.2 hPa | 0 mm | 0 m/s | - | - |
| 1778007826 | 11.67° C | 83% | 1020.2 hPa | 0 mm | 0 m/s | - | - |
* Rain latest hour (hover to see other rain measurements)
** Current wind speed in m/s (hover to see current wind gust speed)